Time;durP1;ratioP1;P1;durP2;ratioP2;P2;SDS_P1;SDS_P2;PMS_P1;PMS_P2;Temp;Humidity;BMP_temperature;BMP_pressure;BME280_temperature;BME280_humidity;BME280_pressure;Samples;Min_cycle;Max_cycle;Signal;HPM_P1;HPM_P2
2024/03/31 00:00:09;;;;;;;11.87;3.00;;;9.40;99.90;;;;;;488428;243;27803;-71
2024/03/31 00:02:09;;;;;;;8.60;2.90;;;9.40;99.90;;;;;;488362;243;28076;-71
2024/03/31 00:04:10;;;;;;;11.60;3.80;;;9.40;99.90;;;;;;488426;243;27799;-71
2024/03/31 00:06:11;;;;;;;12.33;3.80;;;9.40;99.90;;;;;;488410;243;27917;-71
2024/03/31 00:08:13;;;;;;;16.73;5.10;;;9.50;99.90;;;;;;488403;243;28486;-71
2024/03/31 00:10:14;;;;;;;19.80;6.07;;;9.50;99.90;;;;;;488370;243;28285;-72
2024/03/31 00:12:15;;;;;;;14.77;4.80;;;9.50;99.90;;;;;;488454;243;28252;-71
2024/03/31 00:14:16;;;;;;;11.30;5.20;;;9.50;99.90;;;;;;488422;243;27973;-71
2024/03/31 00:16:18;;;;;;;16.83;5.70;;;9.50;99.90;;;;;;488449;243;27877;-74
2024/03/31 00:18:19;;;;;;;13.50;4.97;;;9.40;99.90;;;;;;488280;243;27808;-72
2024/03/31 00:20:20;;;;;;;20.90;5.80;;;9.40;99.90;;;;;;488324;243;28043;-71
2024/03/31 00:22:21;;;;;;;13.60;5.10;;;9.50;99.90;;;;;;488466;243;27961;-72
2024/03/31 00:24:23;;;;;;;18.17;4.90;;;9.40;99.90;;;;;;488422;243;27865;-72
2024/03/31 00:26:24;;;;;;;12.17;3.70;;;9.50;99.90;;;;;;488451;243;27993;-72
2024/03/31 00:28:25;;;;;;;10.83;3.33;;;9.50;99.90;;;;;;488414;243;27753;-71
2024/03/31 00:30:26;;;;;;;6.47;3.40;;;9.50;99.90;;;;;;488396;243;27860;-71
2024/03/31 00:32:28;;;;;;;10.47;2.33;;;9.50;99.90;;;;;;488421;243;27895;-74
2024/03/31 00:34:29;;;;;;;9.80;2.70;;;9.50;99.90;;;;;;488335;243;28195;-72
2024/03/31 00:36:30;;;;;;;5.30;2.87;;;9.50;99.90;;;;;;488429;243;28463;-72
2024/03/31 00:38:31;;;;;;;13.13;3.17;;;9.50;99.90;;;;;;488405;243;28320;-71
2024/03/31 00:40:33;;;;;;;15.17;3.73;;;9.50;99.90;;;;;;488420;243;28418;-72
2024/03/31 00:42:34;;;;;;;8.77;2.07;;;9.50;99.90;;;;;;488458;243;27813;-73
2024/03/31 00:44:35;;;;;;;14.13;3.10;;;9.50;99.90;;;;;;488426;243;27717;-71
2024/03/31 00:46:36;;;;;;;7.83;2.70;;;9.50;99.90;;;;;;488432;243;27918;-72
2024/03/31 00:48:38;;;;;;;10.13;4.00;;;9.60;99.90;;;;;;488384;243;27848;-71
2024/03/31 00:50:39;;;;;;;7.10;2.67;;;9.60;99.90;;;;;;488410;243;27631;-71
2024/03/31 00:52:40;;;;;;;11.43;2.70;;;9.50;99.90;;;;;;488421;243;27897;-72
2024/03/31 00:54:41;;;;;;;9.07;2.60;;;9.50;99.90;;;;;;488423;243;27960;-72
2024/03/31 00:56:43;;;;;;;17.40;2.60;;;9.50;99.90;;;;;;488423;243;27963;-72
2024/03/31 00:58:44;;;;;;;7.80;2.73;;;9.50;99.90;;;;;;488373;243;28355;-71
2024/03/31 01:00:45;;;;;;;15.10;3.83;;;9.40;99.90;;;;;;488386;243;27938;-72
2024/03/31 01:02:46;;;;;;;8.27;3.40;;;9.40;99.90;;;;;;488281;243;27846;-72
2024/03/31 01:04:48;;;;;;;6.50;2.90;;;9.40;99.90;;;;;;488103;243;28358;-71
2024/03/31 01:06:49;;;;;;;12.57;3.30;;;9.40;99.90;;;;;;488396;243;28354;-70
2024/03/31 01:08:53;;;;;;;11.47;3.03;;;9.40;99.90;;;;;;488438;243;28477;-71
2024/03/31 01:10:54;;;;;;;10.20;2.70;;;9.40;99.90;;;;;;488453;243;28133;-71
2024/03/31 01:12:55;;;;;;;9.20;2.60;;;9.40;99.90;;;;;;488461;243;27495;-71
2024/03/31 01:14:57;;;;;;;12.37;2.80;;;9.40;99.90;;;;;;488460;243;27680;-71
2024/03/31 01:16:58;;;;;;;5.07;2.17;;;9.40;99.90;;;;;;488419;243;27870;-72
2024/03/31 01:18:59;;;;;;;5.77;2.33;;;9.40;99.90;;;;;;488429;243;27923;-72
2024/03/31 01:21:00;;;;;;;8.73;2.93;;;9.40;99.90;;;;;;488409;243;27909;-72
2024/03/31 01:23:02;;;;;;;8.17;2.90;;;9.40;99.90;;;;;;488452;243;27893;-71
2024/03/31 01:25:03;;;;;;;5.13;1.87;;;9.40;99.90;;;;;;488477;243;27966;-71
2024/03/31 01:27:04;;;;;;;9.43;3.10;;;9.50;99.90;;;;;;488474;243;28065;-71
2024/03/31 01:29:05;;;;;;;8.23;2.80;;;9.50;99.90;;;;;;488469;243;27669;-71
2024/03/31 01:31:07;;;;;;;9.30;2.37;;;9.40;99.90;;;;;;488329;243;27925;-74
2024/03/31 01:33:08;;;;;;;15.73;2.97;;;9.40;99.90;;;;;;488471;243;27875;-72
2024/03/31 01:35:09;;;;;;;11.43;2.83;;;9.40;99.90;;;;;;488237;243;28450;-71
2024/03/31 01:37:10;;;;;;;10.83;3.23;;;9.40;99.90;;;;;;488404;243;28222;-71
2024/03/31 01:39:14;;;;;;;12.57;2.90;;;9.40;99.90;;;;;;488458;243;28106;-71
2024/03/31 01:41:13;;;;;;;12.90;2.67;;;9.40;99.90;;;;;;488316;243;27638;-73
2024/03/31 01:43:14;;;;;;;8.13;2.30;;;9.40;99.90;;;;;;488467;243;27880;-71
2024/03/31 01:45:15;;;;;;;7.80;3.23;;;9.40;99.90;;;;;;488484;243;27996;-72
2024/03/31 01:47:17;;;;;;;13.00;2.47;;;9.50;99.90;;;;;;488457;243;28021;-71
2024/03/31 01:49:18;;;;;;;8.73;2.80;;;9.50;99.90;;;;;;488484;243;28016;-71
2024/03/31 01:51:19;;;;;;;10.90;2.60;;;9.40;99.90;;;;;;488408;243;27802;-72
2024/03/31 01:53:20;;;;;;;12.17;2.37;;;9.40;99.90;;;;;;488458;243;27755;-71
2024/03/31 01:55:22;;;;;;;8.20;2.77;;;9.40;99.90;;;;;;488489;243;28002;-73
2024/03/31 01:57:23;;;;;;;11.90;2.60;;;9.40;99.90;;;;;;488422;243;27925;-73
2024/03/31 01:59:24;;;;;;;15.50;2.70;;;9.40;99.90;;;;;;488416;243;27735;-72
2024/03/31 02:01:25;;;;;;;10.47;2.43;;;9.40;99.90;;;;;;488443;243;28130;-72
2024/03/31 02:03:27;;;;;;;20.00;3.10;;;9.40;99.90;;;;;;488375;243;28053;-71
2024/03/31 02:05:28;;;;;;;12.47;3.50;;;9.40;99.90;;;;;;488411;243;28405;-71
2024/03/31 02:07:29;;;;;;;9.83;2.13;;;9.40;99.90;;;;;;488434;243;28500;-74
2024/03/31 02:09:30;;;;;;;8.23;2.43;;;9.40;99.90;;;;;;488423;243;27954;-72
2024/03/31 02:11:32;;;;;;;6.37;2.47;;;9.40;99.90;;;;;;488411;243;27792;-71
2024/03/31 02:13:33;;;;;;;10.80;2.60;;;9.40;99.90;;;;;;488458;243;27996;-71
2024/03/31 02:15:34;;;;;;;6.03;2.77;;;9.40;99.90;;;;;;488487;243;28064;-71
2024/03/31 02:17:35;;;;;;;8.30;2.80;;;9.50;99.90;;;;;;488487;243;27938;-72
2024/03/31 02:19:37;;;;;;;8.77;3.30;;;9.40;99.90;;;;;;488469;243;27968;-71
2024/03/31 02:21:38;;;;;;;13.30;3.43;;;9.50;99.90;;;;;;488129;243;28010;-71
2024/03/31 02:23:39;;;;;;;7.53;2.83;;;9.50;99.90;;;;;;488482;243;27882;-71
2024/03/31 02:25:40;;;;;;;6.73;2.37;;;9.40;99.90;;;;;;488373;243;28031;-72
2024/03/31 02:27:42;;;;;;;10.33;3.00;;;9.40;99.90;;;;;;488418;243;27977;-73
2024/03/31 02:29:43;;;;;;;3.13;2.00;;;9.40;99.90;;;;;;488229;243;28480;-71
2024/03/31 02:31:44;;;;;;;6.60;2.70;;;9.40;99.90;;;;;;488418;243;27627;-72
2024/03/31 02:33:45;;;;;;;15.43;3.13;;;9.40;99.90;;;;;;488488;243;27665;-71
2024/03/31 02:35:47;;;;;;;10.17;2.30;;;9.40;99.90;;;;;;488438;243;27972;-71
2024/03/31 02:37:48;;;;;;;9.93;2.50;;;9.40;99.90;;;;;;488364;243;28407;-72
2024/03/31 02:39:49;;;;;;;3.60;2.17;;;9.40;99.90;;;;;;488424;243;28345;-71
2024/03/31 02:41:53;;;;;;;9.63;2.03;;;9.40;99.90;;;;;;488439;243;28405;-72
2024/03/31 02:43:54;;;;;;;9.27;2.50;;;9.40;99.90;;;;;;488271;243;27809;-72
2024/03/31 02:45:55;;;;;;;8.43;2.30;;;9.40;99.90;;;;;;488233;243;27917;-73
2024/03/31 02:47:57;;;;;;;8.93;1.97;;;9.30;99.90;;;;;;488295;243;28224;-72
2024/03/31 02:49:58;;;;;;;8.60;2.37;;;9.30;99.90;;;;;;488421;243;28368;-72
2024/03/31 02:51:59;;;;;;;7.30;2.00;;;9.30;99.90;;;;;;488464;243;28365;-71
2024/03/31 02:54:00;;;;;;;2.87;1.40;;;9.30;99.90;;;;;;488473;243;27994;-71
2024/03/31 02:56:02;;;;;;;4.27;1.90;;;9.30;99.90;;;;;;488482;243;28490;-73
2024/03/31 02:58:03;;;;;;;5.23;1.80;;;9.40;99.90;;;;;;488455;243;27910;-73
2024/03/31 03:00:04;;;;;;;3.53;1.53;;;9.40;99.90;;;;;;488283;243;27591;-71
2024/03/31 03:02:05;;;;;;;4.73;1.63;;;9.40;99.90;;;;;;488291;243;27867;-71
2024/03/31 03:04:07;;;;;;;5.77;1.80;;;9.40;99.90;;;;;;488366;243;27862;-71
2024/03/31 03:06:08;;;;;;;7.20;1.37;;;9.40;99.90;;;;;;488371;243;27912;-72
2024/03/31 03:08:09;;;;;;;6.03;1.90;;;9.40;99.90;;;;;;488415;243;27993;-72
2024/03/31 03:10:10;;;;;;;4.00;1.77;;;9.50;99.90;;;;;;488433;243;28000;-72
2024/03/31 03:12:12;;;;;;;5.70;1.47;;;9.40;99.90;;;;;;488308;243;28014;-71
2024/03/31 03:14:13;;;;;;;8.00;1.77;;;9.40;99.90;;;;;;488030;243;27942;-72
2024/03/31 03:16:14;;;;;;;5.70;1.77;;;9.40;99.90;;;;;;488400;243;28010;-72
2024/03/31 03:18:15;;;;;;;3.93;1.73;;;9.40;99.90;;;;;;488444;243;27948;-71
2024/03/31 03:20:18;;;;;;;3.90;1.70;;;9.40;99.90;;;;;;488425;243;27915;-72
2024/03/31 03:22:18;;;;;;;3.37;1.53;;;9.40;99.90;;;;;;488330;243;28022;-72
2024/03/31 03:24:19;;;;;;;3.87;1.50;;;9.40;99.90;;;;;;488455;243;27937;-71
2024/03/31 03:26:20;;;;;;;5.17;1.50;;;9.40;99.90;;;;;;488311;243;27829;-72
2024/03/31 03:28:22;;;;;;;4.83;1.23;;;9.40;99.90;;;;;;488407;243;28397;-71
2024/03/31 03:30:23;;;;;;;7.80;1.50;;;9.30;99.90;;;;;;488430;243;28513;-72
2024/03/31 03:32:24;;;;;;;11.07;1.80;;;9.40;99.90;;;;;;488309;243;28433;-73
2024/03/31 03:34:25;;;;;;;2.63;1.30;;;9.30;99.90;;;;;;488383;243;28321;-71
2024/03/31 03:36:27;;;;;;;4.77;1.07;;;9.40;99.90;;;;;;488435;243;28406;-71
2024/03/31 03:38:28;;;;;;;8.70;2.00;;;9.30;99.90;;;;;;488451;243;28041;-71
2024/03/31 03:40:29;;;;;;;2.53;1.40;;;9.30;99.90;;;;;;488398;243;27889;-71
2024/03/31 03:42:30;;;;;;;5.17;1.73;;;9.40;99.90;;;;;;488462;243;27918;-71
2024/03/31 03:44:32;;;;;;;4.60;1.87;;;9.30;99.90;;;;;;488463;243;27868;-71
2024/03/31 03:46:33;;;;;;;5.87;1.90;;;9.40;99.90;;;;;;488316;243;27915;-72
2024/03/31 03:48:34;;;;;;;3.10;1.50;;;9.40;99.90;;;;;;488435;243;27877;-71
2024/03/31 03:50:36;;;;;;;3.60;1.43;;;9.40;99.90;;;;;;488437;243;27908;-72
2024/03/31 03:52:37;;;;;;;4.53;1.23;;;9.30;99.90;;;;;;488394;243;27911;-72
2024/03/31 03:54:38;;;;;;;4.37;1.30;;;9.30;99.90;;;;;;488292;243;27640;-70
2024/03/31 03:56:44;;;;;;;3.47;1.40;;;9.30;99.90;;;;;;488151;243;28074;-72
2024/03/31 03:58:40;;;;;;;2.53;1.30;;;9.20;99.90;;;;;;487799;243;28234;-74
2024/03/31 04:00:42;;;;;;;4.50;1.23;;;9.20;99.90;;;;;;488424;243;27909;-71
2024/03/31 04:02:43;;;;;;;3.50;1.23;;;9.30;99.90;;;;;;488438;243;27930;-71
2024/03/31 04:04:44;;;;;;;7.20;1.60;;;9.30;99.90;;;;;;488409;243;27926;-71
2024/03/31 04:06:45;;;;;;;5.83;1.50;;;9.30;99.90;;;;;;488441;243;28504;-71
2024/03/31 04:08:47;;;;;;;3.40;1.23;;;9.30;99.90;;;;;;488458;243;28519;-72
2024/03/31 04:10:48;;;;;;;4.20;1.50;;;9.20;99.90;;;;;;488449;243;28573;-71
2024/03/31 04:12:49;;;;;;;3.00;1.20;;;9.20;99.90;;;;;;488408;243;28360;-72
2024/03/31 04:14:50;;;;;;;3.90;1.50;;;9.30;99.90;;;;;;488454;243;28326;-71
2024/03/31 04:16:52;;;;;;;5.33;1.60;;;9.30;99.90;;;;;;488457;243;27894;-71
2024/03/31 04:18:53;;;;;;;2.30;1.20;;;9.30;99.90;;;;;;488417;243;27991;-72
2024/03/31 04:20:54;;;;;;;4.50;1.37;;;9.30;99.90;;;;;;488459;243;27996;-72
2024/03/31 04:22:55;;;;;;;2.10;1.20;;;9.20;99.90;;;;;;488437;243;27807;-71
2024/03/31 04:24:57;;;;;;;2.60;1.53;;;9.30;99.90;;;;;;488467;243;28099;-71
2024/03/31 04:26:58;;;;;;;4.73;1.47;;;9.20;99.90;;;;;;488289;243;27877;-72
2024/03/31 04:28:59;;;;;;;5.13;1.70;;;9.20;99.90;;;;;;488256;243;27878;-71
2024/03/31 04:31:00;;;;;;;7.03;1.40;;;9.20;99.90;;;;;;488301;243;27595;-71
2024/03/31 04:33:02;;;;;;;2.20;1.30;;;9.20;99.90;;;;;;488423;243;27680;-71
2024/03/31 04:35:03;;;;;;;4.57;1.60;;;9.20;99.90;;;;;;488441;243;27643;-73
2024/03/31 04:37:05;;;;;;;8.63;1.73;;;9.20;99.90;;;;;;488394;243;28008;-71
2024/03/31 04:39:06;;;;;;;3.17;1.10;;;9.20;99.90;;;;;;488256;243;27564;-71
2024/03/31 04:41:08;;;;;;;3.20;1.30;;;9.10;99.90;;;;;;488335;243;27928;-71
2024/03/31 04:43:09;;;;;;;3.60;1.43;;;9.10;99.90;;;;;;488334;243;27493;-71
2024/03/31 04:45:10;;;;;;;6.80;2.10;;;9.10;99.90;;;;;;488437;243;27782;-72
2024/03/31 04:47:11;;;;;;;1.30;1.20;;;9.00;99.90;;;;;;488480;243;28358;-72
2024/03/31 04:49:13;;;;;;;6.43;1.33;;;9.00;99.90;;;;;;488428;243;28209;-71
2024/03/31 04:51:14;;;;;;;4.17;1.50;;;9.00;99.90;;;;;;488349;243;28388;-71
2024/03/31 04:53:15;;;;;;;5.40;1.43;;;9.00;99.90;;;;;;488469;243;29041;-71
2024/03/31 04:55:16;;;;;;;5.07;1.60;;;9.00;99.90;;;;;;486273;243;28402;-71
2024/03/31 04:57:18;;;;;;;8.13;1.57;;;9.00;99.90;;;;;;484729;245;27558;-72
2024/03/31 04:59:19;;;;;;;2.40;1.20;;;9.00;99.90;;;;;;484528;245;27657;-72
2024/03/31 05:01:20;;;;;;;6.47;1.63;;;9.00;99.90;;;;;;484480;245;27531;-71
2024/03/31 05:03:21;;;;;;;3.27;1.30;;;9.00;99.90;;;;;;484541;245;27883;-71
2024/03/31 05:05:23;;;;;;;2.40;1.20;;;9.10;99.90;;;;;;484823;245;27751;-71
2024/03/31 05:07:24;;;;;;;6.00;1.50;;;9.00;99.90;;;;;;484837;245;27911;-72
2024/03/31 05:09:25;;;;;;;2.90;1.17;;;9.00;99.90;;;;;;484787;245;27930;-71
2024/03/31 05:11:26;;;;;;;2.80;1.23;;;9.10;99.90;;;;;;484840;245;27919;-71
2024/03/31 05:13:28;;;;;;;2.03;1.10;;;9.00;99.90;;;;;;484814;245;28267;-74
2024/03/31 05:15:29;;;;;;;3.50;1.37;;;9.00;99.90;;;;;;484842;245;27953;-71
2024/03/31 05:17:30;;;;;;;1.57;1.20;;;9.00;99.90;;;;;;484841;245;27908;-72
2024/03/31 05:19:31;;;;;;;2.40;1.37;;;9.10;99.90;;;;;;484826;245;27942;-71
2024/03/31 05:21:33;;;;;;;2.23;1.40;;;9.10;99.90;;;;;;484793;245;27759;-71
2024/03/31 05:23:34;;;;;;;3.00;1.30;;;9.10;99.90;;;;;;484852;245;28486;-73
2024/03/31 05:25:35;;;;;;;2.80;1.30;;;9.10;99.90;;;;;;484719;245;28287;-71
2024/03/31 05:27:36;;;;;;;1.83;1.40;;;9.10;99.90;;;;;;484849;245;28366;-72
2024/03/31 05:29:38;;;;;;;2.87;1.40;;;9.10;99.90;;;;;;484811;245;29579;-71
2024/03/31 05:31:39;;;;;;;8.13;2.80;;;9.00;99.90;;;;;;484737;245;28039;-71
2024/03/31 05:33:40;;;;;;;5.77;2.23;;;9.10;99.90;;;;;;484787;245;27782;-72
2024/03/31 05:35:41;;;;;;;5.03;1.80;;;9.00;99.90;;;;;;486571;240;27805;-71
2024/03/31 05:37:43;;;;;;;2.47;2.00;;;9.00;99.90;;;;;;483822;246;27817;-72
2024/03/31 05:39:44;;;;;;;8.87;2.17;;;9.00;99.90;;;;;;483584;246;27976;-71
2024/03/31 05:41:45;;;;;;;10.80;1.83;;;8.90;99.90;;;;;;483637;246;27904;-73
2024/03/31 05:43:46;;;;;;;4.63;2.20;;;8.90;99.90;;;;;;483877;246;27924;-71
2024/03/31 05:45:48;;;;;;;2.73;1.47;;;9.00;99.90;;;;;;484139;245;28163;-71
2024/03/31 05:47:49;;;;;;;8.10;1.90;;;9.00;99.90;;;;;;489117;243;27890;-72
2024/03/31 05:49:50;;;;;;;4.40;1.80;;;9.00;99.90;;;;;;489116;243;28354;-72
2024/03/31 05:51:51;;;;;;;6.03;1.60;;;9.00;99.90;;;;;;489141;243;27964;-71
2024/03/31 05:53:53;;;;;;;5.60;1.97;;;9.00;99.90;;;;;;489126;243;27869;-71
2024/03/31 05:55:54;;;;;;;10.40;1.97;;;9.10;99.90;;;;;;489143;243;27564;-71
2024/03/31 05:57:55;;;;;;;9.37;1.90;;;9.10;99.90;;;;;;489140;243;28417;-71
2024/03/31 05:59:56;;;;;;;4.20;1.67;;;9.10;99.90;;;;;;489131;243;28087;-73
2024/03/31 06:01:58;;;;;;;5.00;1.57;;;9.10;99.90;;;;;;487932;243;28261;-71
2024/03/31 06:03:59;;;;;;;3.80;1.90;;;9.00;99.90;;;;;;488610;243;28391;-72
2024/03/31 06:06:00;;;;;;;4.20;1.50;;;9.10;99.90;;;;;;490746;242;28384;-71
2024/03/31 06:08:01;;;;;;;5.70;1.40;;;9.10;99.90;;;;;;491105;241;28039;-72
2024/03/31 06:10:03;;;;;;;1.60;1.40;;;9.20;99.90;;;;;;484191;244;27583;-72
2024/03/31 06:12:04;;;;;;;2.93;1.70;;;9.20;99.90;;;;;;487736;243;27518;-71
2024/03/31 06:14:05;;;;;;;3.93;1.67;;;9.20;99.90;;;;;;488523;243;27781;-72
2024/03/31 06:16:06;;;;;;;6.93;1.30;;;9.20;99.90;;;;;;488653;243;27581;-71
2024/03/31 06:18:08;;;;;;;5.57;1.33;;;9.30;99.90;;;;;;488669;243;27937;-71
2024/03/31 06:20:09;;;;;;;4.13;1.30;;;9.30;99.90;;;;;;488537;243;27973;-72
2024/03/31 06:22:10;;;;;;;3.93;2.13;;;9.30;99.90;;;;;;488665;243;27886;-73
2024/03/31 06:24:11;;;;;;;6.53;1.50;;;9.30;99.90;;;;;;488669;243;27959;-72
2024/03/31 06:26:13;;;;;;;6.03;1.30;;;9.30;99.90;;;;;;488673;243;27885;-73
2024/03/31 06:28:14;;;;;;;8.83;1.53;;;9.20;99.90;;;;;;488673;243;27848;-72
2024/03/31 06:30:15;;;;;;;3.87;1.70;;;9.30;99.90;;;;;;488658;243;27886;-72
2024/03/31 06:32:16;;;;;;;3.57;1.70;;;9.30;99.90;;;;;;488655;243;27833;-70
2024/03/31 06:34:18;;;;;;;5.00;1.50;;;9.30;99.90;;;;;;488662;243;27850;-73
2024/03/31 06:36:19;;;;;;;5.47;1.67;;;9.30;99.90;;;;;;486511;243;27937;-72
2024/03/31 06:38:20;;;;;;;2.13;1.37;;;9.30;99.90;;;;;;486697;243;28296;-71
2024/03/31 06:40:21;;;;;;;16.60;11.03;;;9.30;99.90;;;;;;481485;243;28379;-72
2024/03/31 06:42:23;;;;;;;6.17;3.93;;;9.30;99.90;;;;;;494045;240;28264;-71
2024/03/31 06:44:24;;;;;;;13.30;5.30;;;9.30;99.90;;;;;;494335;240;28127;-72
2024/03/31 06:46:25;;;;;;;9.40;3.70;;;9.30;99.90;;;;;;494309;240;27957;-73
2024/03/31 06:48:26;;;;;;;6.40;3.27;;;9.30;99.90;;;;;;492487;240;27802;-72
2024/03/31 06:50:28;;;;;;;9.10;2.63;;;9.30;99.90;;;;;;493803;239;27800;-71
2024/03/31 06:52:29;;;;;;;3.77;2.50;;;9.30;99.90;;;;;;494393;240;27506;-72
2024/03/31 06:54:30;;;;;;;2.37;1.73;;;9.40;99.90;;;;;;488991;240;27562;-72
2024/03/31 06:56:31;;;;;;;5.10;1.73;;;9.40;99.90;;;;;;488286;239;27759;-72
2024/03/31 06:58:33;;;;;;;3.53;1.70;;;9.50;99.90;;;;;;485323;245;27627;-72
2024/03/31 07:00:34;;;;;;;2.73;1.70;;;9.50;99.90;;;;;;486007;243;28098;-72
2024/03/31 07:02:35;;;;;;;6.60;1.97;;;9.60;99.90;;;;;;486349;243;27855;-73
2024/03/31 07:04:36;;;;;;;6.77;1.83;;;9.60;99.90;;;;;;488453;243;28054;-72
2024/03/31 07:06:38;;;;;;;3.80;1.73;;;9.70;99.90;;;;;;488473;243;27872;-71
2024/03/31 07:08:39;;;;;;;8.20;2.70;;;9.80;99.90;;;;;;488436;243;27911;-72
2024/03/31 07:10:40;;;;;;;3.63;2.20;;;9.80;99.90;;;;;;488413;243;27812;-73
2024/03/31 07:12:42;;;;;;;2.80;1.90;;;9.90;99.90;;;;;;488498;243;27942;-72
2024/03/31 07:14:43;;;;;;;4.80;2.10;;;10.00;99.90;;;;;;488716;240;28440;-72
2024/03/31 07:16:44;;;;;;;5.50;2.40;;;10.10;99.90;;;;;;481497;243;28110;-72
2024/03/31 07:18:45;;;;;;;8.33;3.10;;;10.20;99.90;;;;;;489739;242;28891;-71
2024/03/31 07:20:46;;;;;;;5.73;2.77;;;10.30;99.90;;;;;;489992;242;28052;-71
2024/03/31 07:22:48;;;;;;;6.30;2.23;;;10.40;99.90;;;;;;490489;240;27950;-73
2024/03/31 07:24:49;;;;;;;5.40;2.27;;;10.50;99.90;;;;;;488681;240;27833;-71
2024/03/31 07:26:50;;;;;;;9.00;2.00;;;10.70;99.90;;;;;;493165;240;27939;-74
2024/03/31 07:28:51;;;;;;;2.50;1.80;;;10.80;99.90;;;;;;494400;240;28021;-72
2024/03/31 07:30:53;;;;;;;6.03;1.53;;;10.90;99.90;;;;;;494383;240;28213;-71
2024/03/31 07:32:54;;;;;;;3.10;1.60;;;11.00;99.90;;;;;;494287;240;28173;-72
2024/03/31 07:34:55;;;;;;;2.93;1.70;;;11.00;99.90;;;;;;494400;240;28152;-70
2024/03/31 07:36:56;;;;;;;3.60;1.63;;;11.10;99.90;;;;;;494396;240;28398;-70
2024/03/31 07:38:58;;;;;;;5.03;1.97;;;11.10;99.90;;;;;;494395;240;29667;-70
2024/03/31 07:40:59;;;;;;;6.57;1.80;;;11.10;99.90;;;;;;494342;240;28543;-70
2024/03/31 07:43:00;;;;;;;11.67;2.00;;;11.10;99.90;;;;;;494384;240;28612;-73
2024/03/31 07:45:01;;;;;;;4.07;1.60;;;11.20;99.90;;;;;;494350;240;27980;-71
2024/03/31 07:47:03;;;;;;;5.10;1.47;;;11.30;99.90;;;;;;494364;240;28320;-73
2024/03/31 07:49:04;;;;;;;3.70;1.60;;;11.40;99.90;;;;;;494350;240;28313;-73
2024/03/31 07:51:05;;;;;;;4.70;3.37;;;11.40;99.90;;;;;;494389;240;28383;-70
2024/03/31 07:53:06;;;;;;;3.37;3.07;;;11.50;99.90;;;;;;494375;240;28389;-72
2024/03/31 07:55:08;;;;;;;5.30;2.63;;;11.50;99.90;;;;;;494352;240;28300;-71
2024/03/31 07:57:09;;;;;;;4.63;2.50;;;11.50;99.90;;;;;;494376;240;27961;-72
2024/03/31 07:59:10;;;;;;;2.70;2.40;;;11.50;99.90;;;;;;494312;240;28454;-76
2024/03/31 08:01:11;;;;;;;3.87;2.67;;;11.60;99.90;;;;;;494359;240;28286;-71
2024/03/31 08:03:13;;;;;;;19.43;9.80;;;11.50;99.90;;;;;;494346;240;28562;-73
2024/03/31 08:05:14;;;;;;;8.20;2.30;;;11.60;99.90;;;;;;494329;240;28350;-73
2024/03/31 08:07:15;;;;;;;9.10;2.83;;;11.20;99.90;;;;;;494348;240;28384;-70
2024/03/31 08:09:17;;;;;;;6.60;2.40;;;11.00;99.90;;;;;;494351;240;28325;-73
2024/03/31 08:11:18;;;;;;;4.23;2.30;;;11.00;99.90;;;;;;494363;238;28026;-72
2024/03/31 08:13:19;;;;;;;4.40;2.67;;;11.00;99.90;;;;;;494343;240;28106;-72
2024/03/31 08:15:20;;;;;;;8.97;2.27;;;11.10;99.90;;;;;;494375;240;28757;-72
2024/03/31 08:17:22;;;;;;;3.13;2.30;;;11.10;99.90;;;;;;494396;240;28297;-70
2024/03/31 08:19:23;;;;;;;5.63;2.33;;;11.20;99.90;;;;;;494396;240;29215;-72
2024/03/31 08:21:24;;;;;;;3.80;2.27;;;11.40;99.90;;;;;;494398;240;28835;-71
2024/03/31 08:23:25;;;;;;;5.90;2.70;;;11.50;99.90;;;;;;494356;240;28510;-72
2024/03/31 08:25:27;;;;;;;7.83;3.30;;;11.60;99.90;;;;;;494387;240;28441;-72
2024/03/31 08:27:28;;;;;;;5.30;2.40;;;11.70;99.90;;;;;;494363;240;28072;-71
2024/03/31 08:29:29;;;;;;;10.80;2.67;;;11.50;99.90;;;;;;494355;240;27967;-72
2024/03/31 08:31:30;;;;;;;7.40;2.80;;;11.30;99.90;;;;;;490076;239;28223;-71
2024/03/31 08:33:32;;;;;;;5.57;2.20;;;11.20;99.90;;;;;;486645;240;28389;-72
2024/03/31 08:35:33;;;;;;;9.23;3.00;;;11.30;99.90;;;;;;491345;240;27972;-70
2024/03/31 08:37:34;;;;;;;7.73;2.40;;;11.50;99.90;;;;;;491840;240;28448;-71
2024/03/31 08:39:35;;;;;;;5.33;2.20;;;11.70;99.90;;;;;;490770;240;28268;-71
2024/03/31 08:41:37;;;;;;;9.43;2.60;;;11.80;99.90;;;;;;491455;240;28946;-72
2024/03/31 08:43:38;;;;;;;14.10;2.70;;;11.80;99.90;;;;;;492324;240;28333;-70
2024/03/31 08:45:39;;;;;;;7.93;2.30;;;12.00;99.90;;;;;;494305;240;28935;-71
2024/03/31 08:47:40;;;;;;;5.50;2.10;;;12.20;99.90;;;;;;494301;240;28034;-72
2024/03/31 08:49:42;;;;;;;6.50;2.03;;;12.40;99.90;;;;;;490871;240;28046;-71
2024/03/31 08:51:43;;;;;;;6.20;1.90;;;12.70;99.90;;;;;;490656;240;28160;-72
2024/03/31 08:53:44;;;;;;;7.60;1.90;;;12.70;99.90;;;;;;489690;240;28098;-73
2024/03/31 08:55:45;;;;;;;11.23;2.47;;;12.80;99.90;;;;;;488352;243;28156;-74
2024/03/31 08:57:47;;;;;;;11.50;2.03;;;12.80;99.90;;;;;;488331;243;28162;-74
2024/03/31 08:59:51;;;;;;;7.30;2.17;;;13.00;99.90;;;;;;488420;243;28275;-73
2024/03/31 09:01:49;;;;;;;5.73;1.70;;;13.00;99.90;;;;;;488221;243;28252;-75
2024/03/31 09:03:50;;;;;;;6.17;2.27;;;13.00;99.90;;;;;;488456;243;28414;-73
2024/03/31 09:05:52;;;;;;;6.57;2.57;;;13.00;99.90;;;;;;488437;243;28868;-73
2024/03/31 09:07:53;;;;;;;5.90;2.03;;;13.10;99.90;;;;;;488395;243;29485;-74
2024/03/31 09:09:54;;;;;;;8.53;2.37;;;13.20;99.90;;;;;;488405;243;28591;-74
2024/03/31 09:11:55;;;;;;;8.37;2.60;;;13.30;99.90;;;;;;488444;243;28373;-74
2024/03/31 09:13:57;;;;;;;10.10;2.53;;;13.20;99.90;;;;;;487581;243;28457;-74
2024/03/31 09:15:58;;;;;;;7.30;2.63;;;13.20;99.90;;;;;;484790;245;28351;-73
2024/03/31 09:17:59;;;;;;;15.30;2.20;;;13.10;99.90;;;;;;484707;245;28238;-74
2024/03/31 09:20:00;;;;;;;10.87;2.80;;;13.10;99.90;;;;;;484688;245;28210;-74
2024/03/31 09:22:02;;;;;;;7.33;2.40;;;13.10;99.90;;;;;;484703;245;28150;-74
2024/03/31 09:24:03;;;;;;;12.13;2.20;;;13.10;99.90;;;;;;484666;245;28321;-71
2024/03/31 09:26:04;;;;;;;13.17;2.87;;;13.00;99.90;;;;;;484693;245;28343;-71
2024/03/31 09:28:05;;;;;;;26.00;4.40;;;13.10;99.90;;;;;;484754;245;28759;-76
2024/03/31 09:30:07;;;;;;;14.53;3.50;;;13.10;99.90;;;;;;484762;245;28940;-72
2024/03/31 09:32:09;;;;;;;14.20;2.80;;;13.10;99.90;;;;;;484755;245;28249;-72
2024/03/31 09:34:10;;;;;;;11.93;2.80;;;13.20;99.90;;;;;;484770;245;28860;-72
2024/03/31 09:36:11;;;;;;;13.17;3.47;;;13.10;99.90;;;;;;484810;245;29026;-71
2024/03/31 09:38:13;;;;;;;12.00;2.40;;;13.10;99.90;;;;;;484838;245;28103;-70
2024/03/31 09:40:15;;;;;;;17.07;3.30;;;13.20;99.90;;;;;;484830;245;28210;-73
2024/03/31 09:42:15;;;;;;;12.57;3.13;;;13.20;99.90;;;;;;484775;245;28279;-71
2024/03/31 09:44:16;;;;;;;14.40;3.20;;;13.30;99.90;;;;;;484697;245;28572;-71
2024/03/31 09:46:18;;;;;;;21.83;3.50;;;13.40;99.90;;;;;;484781;245;28489;-74
2024/03/31 09:48:19;;;;;;;16.80;2.93;;;13.60;99.90;;;;;;484841;245;28230;-70
2024/03/31 09:50:20;;;;;;;16.23;4.17;;;13.70;99.90;;;;;;484792;245;29063;-72
2024/03/31 09:52:21;;;;;;;23.23;5.70;;;13.80;99.90;;;;;;484823;245;28916;-71
2024/03/31 09:54:23;;;;;;;16.33;4.07;;;14.00;99.90;;;;;;484776;245;28914;-73
2024/03/31 09:56:24;;;;;;;14.47;3.63;;;14.10;99.90;;;;;;484805;245;28349;-74
2024/03/31 09:58:25;;;;;;;16.60;2.90;;;14.20;99.90;;;;;;484655;243;28794;-71
2024/03/31 10:00:27;;;;;;;31.03;4.57;;;14.50;99.90;;;;;;487972;243;28537;-72
2024/03/31 10:02:28;;;;;;;20.43;3.17;;;14.60;99.90;;;;;;483668;246;28792;-74
2024/03/31 10:04:29;;;;;;;15.27;3.20;;;14.60;99.90;;;;;;483796;246;29223;-72
2024/03/31 10:06:30;;;;;;;20.13;3.90;;;14.60;99.90;;;;;;483889;246;29355;-72
2024/03/31 10:08:32;;;;;;;18.57;3.30;;;14.70;99.90;;;;;;483893;246;29332;-73
2024/03/31 10:10:35;;;;;;;24.70;4.57;;;14.50;99.90;;;;;;482213;246;28852;-73
2024/03/31 10:12:36;;;;;;;23.80;3.63;;;14.60;99.90;;;;;;489970;242;28851;-72
2024/03/31 10:14:38;;;;;;;13.87;3.33;;;14.50;99.90;;;;;;490110;243;28840;-72
2024/03/31 10:16:39;;;;;;;27.27;4.03;;;14.50;99.90;;;;;;489927;242;28913;-73
2024/03/31 10:18:40;;;;;;;25.23;3.40;;;14.20;99.90;;;;;;489976;243;29312;-72
2024/03/31 10:20:42;;;;;;;18.77;3.00;;;14.00;99.90;;;;;;490078;242;29258;-73
2024/03/31 10:22:43;;;;;;;19.67;3.63;;;14.00;99.90;;;;;;489994;243;29358;-76
2024/03/31 10:24:44;;;;;;;21.47;4.00;;;14.20;99.90;;;;;;489152;242;28901;-71
2024/03/31 10:26:45;;;;;;;22.83;3.63;;;14.30;99.90;;;;;;490522;241;28706;-73
2024/03/31 10:28:47;;;;;;;22.63;3.30;;;14.30;99.90;;;;;;490775;241;28927;-74
2024/03/31 10:30:48;;;;;;;14.93;3.37;;;14.30;99.90;;;;;;484731;244;28775;-73
2024/03/31 10:32:49;;;;;;;17.47;3.40;;;14.30;99.90;;;;;;483807;246;28901;-73